Terminal Aerodrome Forecast
Issued by NWS

Home | Current Version | Previous Version | Text Only | Print | Product List | Glossary On
Versions: 1 2 3 4 5 6 7 8 9 10 11 12 13 14 15 16 17 18 19 20 21 22 23 24
000
FTUS44 KHGX 162057 AAA
TAFIAH
TAF AMD
KIAH 162057Z 1621/1724 11013KT P6SM VCSH SCT060 BKN090
     FM162200 08012KT P6SM -SHRA SCT025 OVC050
     FM170100 06015KT 4SM TSRA SCT007 OVC015CB
     FM170400 05010KT 4SM BR VCSH OVC010
     FM170700 01006KT 4SM BR BKN007
     FM171200 07003KT 6SM BR BKN010
     FM171800 09005KT P6SM FEW015=

USA.gov is the U.S. government's official web portal to all federal, state and local government web resources and services.